createdAt,value
2018-12-17T00:01:30.344Z,-0.30
2018-12-17T00:03:59.063Z,-0.30
2018-12-17T00:06:28.089Z,-0.20
2018-12-17T00:08:56.804Z,-0.20
2018-12-17T00:11:25.493Z,-0.10
2018-12-17T00:13:54.209Z,-0.20
2018-12-17T00:16:22.880Z,-0.20
2018-12-17T00:18:51.650Z,-0.20
2018-12-17T00:21:20.410Z,-0.10
2018-12-17T00:23:49.118Z,-0.20
2018-12-17T00:26:17.836Z,-0.10
2018-12-17T00:28:46.523Z,-0.10
2018-12-17T00:31:15.240Z,-0.10
2018-12-17T00:33:43.991Z,0.00
2018-12-17T00:36:12.682Z,0.00
2018-12-17T00:38:41.457Z,0.00
2018-12-17T00:41:10.290Z,0.10
2018-12-17T00:43:38.960Z,0.00
2018-12-17T00:46:07.672Z,0.10
2018-12-17T00:48:36.590Z,0.10
2018-12-17T00:51:05.500Z,0.10
2018-12-17T00:53:34.176Z,0.10
2018-12-17T00:56:02.953Z,0.10
2018-12-17T00:58:31.670Z,0.10
2018-12-17T01:01:00.384Z,0.00
2018-12-17T01:03:29.100Z,0.00
2018-12-17T01:05:57.783Z,0.00
2018-12-17T01:08:26.685Z,0.00
2018-12-17T01:10:55.383Z,0.10
2018-12-17T01:13:24.166Z,0.10
2018-12-17T01:15:52.906Z,0.10
2018-12-17T01:18:21.605Z,0.00
2018-12-17T01:20:50.325Z,0.10
2018-12-17T01:23:19.030Z,0.10
2018-12-17T01:25:47.760Z,0.10
2018-12-17T01:28:22.195Z,0.10
2018-12-17T01:30:47.222Z,0.10
2018-12-17T01:33:15.951Z,0.10
2018-12-17T01:35:44.902Z,0.10
2018-12-17T01:38:13.638Z,0.10
2018-12-17T01:40:42.379Z,0.10
2018-12-17T01:43:11.050Z,0.10
2018-12-17T01:45:40.283Z,0.00
2018-12-17T01:48:09.024Z,0.00
2018-12-17T01:50:37.726Z,0.00
2018-12-17T01:53:06.443Z,0.00
2018-12-17T01:55:35.192Z,0.10
2018-12-17T01:58:03.854Z,0.00
2018-12-17T02:00:32.589Z,0.00
2018-12-17T02:03:01.270Z,0.10
2018-12-17T02:05:29.993Z,0.10
2018-12-17T02:07:58.696Z,0.00
2018-12-17T02:10:27.433Z,0.00
2018-12-17T02:12:56.103Z,0.00
2018-12-17T02:15:24.820Z,0.00
2018-12-17T02:17:53.556Z,0.00
2018-12-17T02:20:22.276Z,0.10
2018-12-17T02:22:50.965Z,0.20
2018-12-17T02:25:19.674Z,0.30
2018-12-17T02:27:48.402Z,0.30
2018-12-17T02:30:17.392Z,0.30
2018-12-17T02:32:46.421Z,0.20
2018-12-17T02:35:15.177Z,0.20
2018-12-17T02:37:43.899Z,0.20
2018-12-17T02:40:13.817Z,0.30
2018-12-17T02:42:42.562Z,0.30
2018-12-17T02:45:11.332Z,0.30
2018-12-17T02:47:40.054Z,0.30
2018-12-17T02:50:08.792Z,0.30
2018-12-17T02:52:37.551Z,0.40
2018-12-17T02:55:06.655Z,0.30
2018-12-17T02:57:35.552Z,0.30
2018-12-17T03:00:06.215Z,0.30
2018-12-17T03:02:34.925Z,0.20
2018-12-17T03:05:04.385Z,0.20
2018-12-17T03:07:33.091Z,0.20
2018-12-17T03:10:01.843Z,0.20
2018-12-17T03:12:30.527Z,0.20
2018-12-17T03:14:59.266Z,0.20
2018-12-17T03:17:27.964Z,0.20
2018-12-17T03:19:56.623Z,0.20
2018-12-17T03:22:25.337Z,0.10
2018-12-17T03:24:54.094Z,0.20
2018-12-17T03:27:22.799Z,0.20
2018-12-17T03:29:51.515Z,0.30
2018-12-17T03:32:20.218Z,0.30
2018-12-17T03:34:48.951Z,0.30
2018-12-17T03:37:17.706Z,0.30
2018-12-17T03:39:46.419Z,0.30
2018-12-17T03:42:15.129Z,0.30
2018-12-17T03:44:43.898Z,0.30
2018-12-17T03:47:12.571Z,0.30
2018-12-17T03:49:41.329Z,0.30
2018-12-17T03:52:09.997Z,0.30
2018-12-17T03:54:38.749Z,0.30
2018-12-17T03:57:07.456Z,0.30
2018-12-17T03:59:37.101Z,0.40
2018-12-17T04:02:05.842Z,0.40
2018-12-17T04:04:34.606Z,0.30
2018-12-17T04:07:03.289Z,0.40
2018-12-17T04:09:32.175Z,0.50
2018-12-17T04:12:00.872Z,0.50
2018-12-17T04:14:29.571Z,0.50
2018-12-17T04:16:58.314Z,0.50
2018-12-17T04:19:27.054Z,0.40
2018-12-17T04:21:55.765Z,0.40
2018-12-17T04:24:24.522Z,0.50
2018-12-17T04:26:53.202Z,0.50
2018-12-17T04:29:22.191Z,0.50
2018-12-17T04:31:51.000Z,0.50
2018-12-17T04:34:20.764Z,0.40
2018-12-17T04:36:49.457Z,0.50
2018-12-17T04:39:18.170Z,0.50
2018-12-17T04:41:46.876Z,0.50
2018-12-17T04:44:15.582Z,0.50
2018-12-17T04:46:44.309Z,0.40
2018-12-17T04:49:13.039Z,0.50
2018-12-17T04:51:41.782Z,0.50
2018-12-17T04:54:10.504Z,0.70
2018-12-17T04:56:39.210Z,0.90
2018-12-17T04:59:14.378Z,0.90
2018-12-17T05:01:38.731Z,0.80
2018-12-17T05:04:07.443Z,0.80
2018-12-17T05:06:36.204Z,0.70
2018-12-17T05:09:06.965Z,0.70
2018-12-17T05:11:35.674Z,0.60
2018-12-17T05:14:05.937Z,0.60
2018-12-17T05:16:34.624Z,0.50
2018-12-17T05:19:03.389Z,0.50
2018-12-17T05:21:32.144Z,0.60
2018-12-17T05:24:00.867Z,0.50
2018-12-17T05:26:29.606Z,0.60
2018-12-17T05:28:58.359Z,0.50
2018-12-17T05:31:27.066Z,0.50
2018-12-17T05:33:56.158Z,0.50
2018-12-17T05:36:24.925Z,0.50
2018-12-17T05:38:54.696Z,0.60
2018-12-17T05:41:23.443Z,0.50
2018-12-17T05:43:52.128Z,0.50
2018-12-17T05:46:20.830Z,0.50
2018-12-17T05:48:49.537Z,0.50
2018-12-17T05:51:18.219Z,0.50
2018-12-17T05:53:46.887Z,0.50
2018-12-17T05:56:16.009Z,0.60
2018-12-17T05:58:44.754Z,0.60
2018-12-17T06:01:13.457Z,0.60
2018-12-17T06:03:42.165Z,0.50
2018-12-17T06:06:10.985Z,0.50
2018-12-17T06:08:39.715Z,0.50
2018-12-17T06:11:08.419Z,0.50
2018-12-17T06:13:37.105Z,0.50
2018-12-17T06:16:05.842Z,0.50
2018-12-17T06:18:34.703Z,0.50
2018-12-17T06:21:03.397Z,0.50
2018-12-17T06:23:32.064Z,0.50
2018-12-17T06:26:00.789Z,0.50
2018-12-17T06:28:29.573Z,0.40
2018-12-17T06:30:58.273Z,0.40
2018-12-17T06:33:26.979Z,0.40
2018-12-17T06:35:55.735Z,0.40
2018-12-17T06:38:24.490Z,0.50
2018-12-17T06:40:53.222Z,0.50
2018-12-17T06:43:21.941Z,0.40
2018-12-17T06:45:50.728Z,0.50
2018-12-17T06:48:19.470Z,0.50
2018-12-17T06:50:48.188Z,0.50
2018-12-17T06:53:16.929Z,0.60
2018-12-17T06:55:47.501Z,0.60
2018-12-17T06:58:16.414Z,0.60
2018-12-17T07:00:45.154Z,0.60
2018-12-17T07:03:13.890Z,0.70
2018-12-17T07:05:42.610Z,0.70
2018-12-17T07:08:13.005Z,0.70
2018-12-17T07:10:41.673Z,0.80
2018-12-17T07:13:10.370Z,0.80
2018-12-17T07:15:39.073Z,0.80
2018-12-17T07:18:07.742Z,0.80
2018-12-17T07:20:36.488Z,0.80
2018-12-17T07:23:05.183Z,0.80
2018-12-17T07:25:34.453Z,0.80
2018-12-17T07:28:03.198Z,0.80
2018-12-17T07:30:31.890Z,0.90
2018-12-17T07:33:00.559Z,0.80
2018-12-17T07:35:29.291Z,0.80
2018-12-17T07:37:58.223Z,0.90
2018-12-17T07:40:26.931Z,1.00
2018-12-17T07:42:55.608Z,0.90
2018-12-17T07:45:24.286Z,0.90
2018-12-17T07:47:53.026Z,0.90
2018-12-17T07:50:21.738Z,0.90
2018-12-17T07:52:50.521Z,0.90
2018-12-17T07:55:19.441Z,0.90
2018-12-17T07:57:48.200Z,1.00
2018-12-17T08:00:16.943Z,1.00
2018-12-17T08:02:45.628Z,0.90
2018-12-17T08:05:14.372Z,0.90
2018-12-17T08:07:44.197Z,1.10
2018-12-17T08:10:13.233Z,1.10
2018-12-17T08:12:41.962Z,1.10
2018-12-17T08:15:10.659Z,1.10
2018-12-17T08:17:39.379Z,1.10
2018-12-17T08:20:08.106Z,1.10
2018-12-17T08:22:37.108Z,1.10
2018-12-17T08:25:05.825Z,1.10
2018-12-17T08:27:34.612Z,1.10
2018-12-17T08:30:04.329Z,1.20
2018-12-17T08:32:33.407Z,1.10
2018-12-17T08:35:02.147Z,1.20
2018-12-17T08:37:30.808Z,1.10
2018-12-17T08:40:00.535Z,1.20
2018-12-17T08:42:29.266Z,1.20
2018-12-17T08:44:58.004Z,1.20
2018-12-17T08:47:26.856Z,1.30
2018-12-17T08:49:55.530Z,1.40
2018-12-17T08:52:24.231Z,1.40
2018-12-17T08:54:52.966Z,1.40
2018-12-17T08:57:21.684Z,1.50
2018-12-17T08:59:50.421Z,1.50
2018-12-17T09:02:19.144Z,1.50
2018-12-17T09:04:47.943Z,1.50
2018-12-17T09:07:16.671Z,1.60
2018-12-17T09:09:45.381Z,1.60
2018-12-17T09:12:14.088Z,1.60
2018-12-17T09:14:42.762Z,1.60
2018-12-17T09:17:11.476Z,1.70
2018-12-17T09:19:40.192Z,1.70
2018-12-17T09:22:08.929Z,1.70
2018-12-17T09:24:37.744Z,1.80
2018-12-17T09:27:06.444Z,1.90
2018-12-17T09:29:35.150Z,1.80
2018-12-17T09:32:03.823Z,1.90
2018-12-17T09:34:32.515Z,1.90
2018-12-17T09:37:01.297Z,1.90
2018-12-17T09:39:30.196Z,1.90
2018-12-17T09:41:58.905Z,2.00
2018-12-17T09:44:27.605Z,2.10
2018-12-17T09:46:56.304Z,2.10
2018-12-17T09:49:25.127Z,2.10
2018-12-17T09:51:53.853Z,2.30
2018-12-17T09:54:22.599Z,2.30
2018-12-17T09:56:51.305Z,2.30
2018-12-17T09:59:20.020Z,2.30
2018-12-17T10:01:50.675Z,2.30
2018-12-17T10:04:19.382Z,2.50
2018-12-17T10:06:48.104Z,2.50
2018-12-17T10:09:16.802Z,2.40
2018-12-17T10:11:45.485Z,2.30
2018-12-17T10:14:14.247Z,2.20
2018-12-17T10:16:42.965Z,2.20
2018-12-17T10:19:11.668Z,2.30
2018-12-17T10:21:40.442Z,2.30
2018-12-17T10:24:09.304Z,2.30
2018-12-17T10:26:38.021Z,2.40
2018-12-17T10:29:06.962Z,2.30
2018-12-17T10:31:35.669Z,2.30
2018-12-17T10:34:04.375Z,2.30
2018-12-17T10:36:33.168Z,2.30
2018-12-17T10:39:01.877Z,2.40
2018-12-17T10:41:30.557Z,2.40
2018-12-17T10:43:59.291Z,2.30
2018-12-17T10:46:27.984Z,2.40
2018-12-17T10:48:56.656Z,2.60
2018-12-17T10:51:25.375Z,2.60
2018-12-17T10:53:54.174Z,2.60
2018-12-17T10:56:22.938Z,2.70
2018-12-17T10:58:51.693Z,2.50
2018-12-17T11:01:25.772Z,2.50
2018-12-17T11:03:56.149Z,2.50
2018-12-17T11:06:25.024Z,2.50
2018-12-17T11:08:53.725Z,2.40
2018-12-17T11:11:22.427Z,2.40
2018-12-17T11:13:51.125Z,2.50
2018-12-17T11:16:19.913Z,2.60
2018-12-17T11:18:48.631Z,2.60
2018-12-17T11:21:17.554Z,2.60
2018-12-17T11:23:46.358Z,2.70
2018-12-17T11:26:15.093Z,2.70
2018-12-17T11:28:44.130Z,2.80
2018-12-17T11:31:12.965Z,2.80
2018-12-17T11:33:41.735Z,2.60
2018-12-17T11:36:10.507Z,2.60
2018-12-17T11:38:39.225Z,2.60
2018-12-17T11:41:07.964Z,2.60
2018-12-17T11:43:43.609Z,2.70
2018-12-17T11:46:09.073Z,2.70
2018-12-17T11:48:37.826Z,2.80
2018-12-17T11:51:06.552Z,2.90
2018-12-17T11:53:35.290Z,2.90
2018-12-17T11:56:04.023Z,2.90
2018-12-17T11:58:32.770Z,3.00
2018-12-17T12:01:02.013Z,2.90
2018-12-17T12:03:31.236Z,2.90
2018-12-17T12:05:59.973Z,2.90
2018-12-17T12:08:28.673Z,2.90
2018-12-17T12:10:57.349Z,2.90
2018-12-17T12:13:26.018Z,2.90
2018-12-17T12:15:54.818Z,3.00
2018-12-17T12:18:23.581Z,3.10
2018-12-17T12:20:52.310Z,3.10
2018-12-17T12:23:21.057Z,3.10
2018-12-17T12:25:49.788Z,3.20
2018-12-17T12:28:18.677Z,3.00
2018-12-17T12:30:47.455Z,2.90
2018-12-17T12:33:16.279Z,2.90
2018-12-17T12:35:45.022Z,2.90
2018-12-17T12:38:13.773Z,2.80
2018-12-17T12:40:42.507Z,2.80
2018-12-17T12:43:11.260Z,2.90
2018-12-17T12:45:40.004Z,2.80
2018-12-17T12:48:08.739Z,2.80
2018-12-17T12:50:37.438Z,2.80
2018-12-17T12:53:06.214Z,2.80
2018-12-17T12:55:34.956Z,2.70
2018-12-17T12:58:04.065Z,2.70
2018-12-17T13:00:33.100Z,2.70
2018-12-17T13:03:01.844Z,2.60
2018-12-17T13:05:30.569Z,2.60
2018-12-17T13:07:59.362Z,2.80
2018-12-17T13:10:28.032Z,2.90
2018-12-17T13:12:56.808Z,2.80
2018-12-17T13:15:25.528Z,2.90
2018-12-17T13:17:54.246Z,2.90
2018-12-17T13:20:22.999Z,2.90
2018-12-17T13:22:51.695Z,2.80
2018-12-17T13:25:22.068Z,2.80
2018-12-17T13:27:50.776Z,2.80
2018-12-17T13:30:20.592Z,2.90
2018-12-17T13:32:49.373Z,2.90
2018-12-17T13:35:18.098Z,2.90
2018-12-17T13:37:46.760Z,2.90
2018-12-17T13:40:15.545Z,2.90
2018-12-17T13:42:44.272Z,3.00
2018-12-17T13:45:13.164Z,3.00
2018-12-17T13:47:41.914Z,2.90
2018-12-17T13:50:16.077Z,2.90
2018-12-17T13:52:45.764Z,2.90
2018-12-17T13:55:14.927Z,3.10
2018-12-17T13:57:43.697Z,3.10
2018-12-17T14:00:12.809Z,3.00
2018-12-17T14:02:41.548Z,2.90
2018-12-17T14:05:10.249Z,3.00
2018-12-17T14:07:38.977Z,3.00
2018-12-17T14:10:14.358Z,3.00
2018-12-17T14:12:43.072Z,3.00
2018-12-17T14:15:11.781Z,3.00
2018-12-17T14:17:42.178Z,3.00
2018-12-17T14:20:16.439Z,3.00
2018-12-17T14:22:45.107Z,3.00
2018-12-17T14:25:13.970Z,3.00
2018-12-17T14:27:42.736Z,3.00
2018-12-17T14:30:11.833Z,3.00
2018-12-17T14:32:40.597Z,3.00
2018-12-17T14:35:09.326Z,3.00
2018-12-17T14:37:39.661Z,2.90
2018-12-17T14:40:08.607Z,2.90
2018-12-17T14:42:37.330Z,2.90
2018-12-17T14:45:07.001Z,2.90
2018-12-17T14:47:35.697Z,2.90
2018-12-17T14:50:05.042Z,2.90
2018-12-17T14:52:33.769Z,2.90
2018-12-17T14:55:02.493Z,2.90
2018-12-17T14:57:31.367Z,2.90
2018-12-17T15:00:00.110Z,2.90
2018-12-17T15:02:28.823Z,3.00
2018-12-17T15:04:57.527Z,2.90
2018-12-17T15:07:26.283Z,2.90
2018-12-17T15:09:54.997Z,2.90
2018-12-17T15:12:23.707Z,2.90
2018-12-17T15:14:52.404Z,2.90
2018-12-17T15:17:21.071Z,2.90
2018-12-17T15:19:49.788Z,2.90
2018-12-17T15:22:18.646Z,2.90
2018-12-17T15:24:47.383Z,2.90
2018-12-17T15:27:15.991Z,2.90
2018-12-17T15:29:44.947Z,3.00
2018-12-17T15:32:13.893Z,2.90
2018-12-17T15:34:42.596Z,2.90
2018-12-17T15:37:11.306Z,2.90
2018-12-17T15:39:40.037Z,3.00
2018-12-17T15:42:08.804Z,2.90
2018-12-17T15:44:37.559Z,3.00
2018-12-17T15:47:06.224Z,3.00
2018-12-17T15:49:34.908Z,3.00
2018-12-17T15:52:03.622Z,3.10
2018-12-17T15:54:32.336Z,3.10
2018-12-17T15:57:01.061Z,3.10
2018-12-17T15:59:29.964Z,3.00
2018-12-17T16:01:58.672Z,3.20
2018-12-17T16:04:27.417Z,3.10
2018-12-17T16:06:56.143Z,3.10
2018-12-17T16:09:24.815Z,3.20
2018-12-17T16:11:53.718Z,3.10
2018-12-17T16:14:22.405Z,3.20
2018-12-17T16:16:51.115Z,3.10
2018-12-17T16:19:19.854Z,3.10
2018-12-17T16:21:49.367Z,3.20
2018-12-17T16:24:18.055Z,3.20
2018-12-17T16:26:46.739Z,3.20
2018-12-17T16:29:15.527Z,3.20
2018-12-17T16:31:44.202Z,3.20
2018-12-17T16:34:12.966Z,3.20
2018-12-17T16:36:42.183Z,3.30
2018-12-17T16:39:11.097Z,3.30
2018-12-17T16:41:39.794Z,3.30
2018-12-17T16:44:08.509Z,3.30
2018-12-17T16:46:37.210Z,3.30
2018-12-17T16:49:06.025Z,3.20
2018-12-17T16:51:34.751Z,3.20
2018-12-17T16:54:03.459Z,3.30
2018-12-17T16:56:32.310Z,3.30
2018-12-17T16:59:01.037Z,3.30
2018-12-17T17:01:29.747Z,3.30
2018-12-17T17:03:58.483Z,3.30
2018-12-17T17:06:27.157Z,3.30
2018-12-17T17:08:55.938Z,3.30
2018-12-17T17:11:24.644Z,3.20
2018-12-17T17:13:53.348Z,3.20
2018-12-17T17:16:22.192Z,3.30
2018-12-17T17:18:51.074Z,3.30
2018-12-17T17:21:19.770Z,3.20
2018-12-17T17:23:48.430Z,3.20
2018-12-17T17:26:17.269Z,3.20
2018-12-17T17:28:45.981Z,3.20
2018-12-17T17:31:14.683Z,3.20
2018-12-17T17:33:43.421Z,3.10
2018-12-17T17:36:12.343Z,3.20
2018-12-17T17:38:41.059Z,3.20
2018-12-17T17:41:09.758Z,3.20
2018-12-17T17:43:38.531Z,3.20
2018-12-17T17:46:07.225Z,3.10
2018-12-17T17:48:35.899Z,3.10
2018-12-17T17:51:04.615Z,3.10
2018-12-17T17:53:33.301Z,3.00
2018-12-17T17:56:02.011Z,3.10
2018-12-17T17:58:30.909Z,3.10
2018-12-17T18:00:59.588Z,3.10
2018-12-17T18:03:28.351Z,3.00
2018-12-17T18:05:57.018Z,3.00
2018-12-17T18:08:25.796Z,3.10
2018-12-17T18:10:54.554Z,3.10
2018-12-17T18:13:23.533Z,3.10
2018-12-17T18:15:52.266Z,3.20
2018-12-17T18:18:21.022Z,3.20
2018-12-17T18:20:49.997Z,3.20
2018-12-17T18:23:18.745Z,3.20
2018-12-17T18:25:47.489Z,3.20
2018-12-17T18:28:16.163Z,3.20
2018-12-17T18:30:44.909Z,3.20
2018-12-17T18:33:13.745Z,3.20
2018-12-17T18:35:42.466Z,3.20
2018-12-17T18:38:11.194Z,3.30
2018-12-17T18:40:39.889Z,3.30
2018-12-17T18:43:08.617Z,3.20
2018-12-17T18:45:37.285Z,3.20
2018-12-17T18:48:05.990Z,3.20
2018-12-17T18:50:34.703Z,3.20
2018-12-17T18:53:03.441Z,3.20
2018-12-17T18:55:32.103Z,3.20
2018-12-17T18:58:00.854Z,3.30
2018-12-17T19:00:29.529Z,3.30
2018-12-17T19:02:58.280Z,3.20
2018-12-17T19:05:26.992Z,3.30
2018-12-17T19:07:55.718Z,3.30
2018-12-17T19:10:26.126Z,3.30
2018-12-17T19:12:54.840Z,3.30
2018-12-17T19:15:23.593Z,3.40
2018-12-17T19:17:52.320Z,3.30
2018-12-17T19:20:21.031Z,3.30
2018-12-17T19:22:49.713Z,3.20
2018-12-17T19:25:18.562Z,3.30
2018-12-17T19:27:47.724Z,3.30
2018-12-17T19:30:16.689Z,3.30
2018-12-17T19:32:45.393Z,3.30
2018-12-17T19:35:14.260Z,3.20
2018-12-17T19:37:43.867Z,3.20
2018-12-17T19:40:12.996Z,3.20
2018-12-17T19:42:41.830Z,3.20
2018-12-17T19:45:10.605Z,3.20
2018-12-17T19:47:39.275Z,3.20
2018-12-17T19:50:08.429Z,3.20
2018-12-17T19:52:37.354Z,3.20
2018-12-17T19:55:06.465Z,3.20
2018-12-17T19:57:35.500Z,3.20
2018-12-17T20:00:06.760Z,3.10
2018-12-17T20:02:35.516Z,3.20
2018-12-17T20:05:04.769Z,3.10
2018-12-17T20:07:33.460Z,3.10
2018-12-17T20:10:02.160Z,3.10
2018-12-17T20:12:30.851Z,3.10
2018-12-17T20:14:59.600Z,3.10
2018-12-17T20:17:28.333Z,3.10
2018-12-17T20:19:57.012Z,3.10
2018-12-17T20:22:25.743Z,3.10
2018-12-17T20:24:54.878Z,3.20
2018-12-17T20:27:23.644Z,3.10
2018-12-17T20:29:52.375Z,3.10
2018-12-17T20:32:21.109Z,3.10
2018-12-17T20:34:49.791Z,3.10
2018-12-17T20:37:18.471Z,3.10
2018-12-17T20:39:47.148Z,3.10
2018-12-17T20:42:15.857Z,3.20
2018-12-17T20:44:44.625Z,3.20
2018-12-17T20:47:13.330Z,3.10
2018-12-17T20:49:42.042Z,3.10
2018-12-17T20:52:10.729Z,3.20
2018-12-17T20:54:39.442Z,3.20
2018-12-17T20:57:08.162Z,3.10
2018-12-17T20:59:36.860Z,3.20
2018-12-17T21:02:05.658Z,3.20
2018-12-17T21:04:34.418Z,3.20
2018-12-17T21:07:03.092Z,3.10
2018-12-17T21:09:31.819Z,3.20
2018-12-17T21:12:00.574Z,3.10
2018-12-17T21:14:29.272Z,3.10
2018-12-17T21:16:58.170Z,3.20
2018-12-17T21:19:26.978Z,3.20
2018-12-17T21:21:55.941Z,3.10
2018-12-17T21:24:24.658Z,3.20
2018-12-17T21:26:53.349Z,3.20
2018-12-17T21:29:22.042Z,3.20
2018-12-17T21:31:50.801Z,3.10
2018-12-17T21:34:19.465Z,3.20
2018-12-17T21:36:48.207Z,3.20
2018-12-17T21:39:16.884Z,3.20
2018-12-17T21:41:45.619Z,3.20
2018-12-17T21:44:14.438Z,3.20
2018-12-17T21:46:43.182Z,3.20
2018-12-17T21:49:11.993Z,3.20
2018-12-17T21:51:40.730Z,3.20
2018-12-17T21:54:09.462Z,3.20
2018-12-17T21:56:38.157Z,3.20
2018-12-17T21:59:06.883Z,3.20
2018-12-17T22:01:35.599Z,3.30
2018-12-17T22:04:04.270Z,3.30
2018-12-17T22:06:33.007Z,3.30
2018-12-17T22:09:01.667Z,3.30
2018-12-17T22:11:30.452Z,3.20
2018-12-17T22:13:59.234Z,3.10
2018-12-17T22:16:27.967Z,3.20
2018-12-17T22:18:56.679Z,3.20
2018-12-17T22:21:25.367Z,3.30
2018-12-17T22:23:54.091Z,3.30
2018-12-17T22:26:29.090Z,3.20
2018-12-17T22:28:53.791Z,3.20
2018-12-17T22:31:22.881Z,3.10
2018-12-17T22:33:51.593Z,3.10
2018-12-17T22:36:20.367Z,3.10
2018-12-17T22:38:49.102Z,3.10
2018-12-17T22:41:17.783Z,3.00
2018-12-17T22:43:46.552Z,3.00
2018-12-17T22:46:15.256Z,3.10
2018-12-17T22:48:44.053Z,3.10
2018-12-17T22:51:12.754Z,3.20
2018-12-17T22:53:41.477Z,3.20
2018-12-17T22:56:10.220Z,3.20
2018-12-17T22:58:42.336Z,3.10
2018-12-17T23:01:09.747Z,3.20
2018-12-17T23:03:38.433Z,3.20
2018-12-17T23:06:07.133Z,3.20
2018-12-17T23:08:37.720Z,3.20
2018-12-17T23:11:17.536Z,3.30
2018-12-17T23:13:57.691Z,3.20
2018-12-17T23:16:37.740Z,3.10
2018-12-17T23:19:05.403Z,3.10
2018-12-17T23:21:34.168Z,3.10
2018-12-17T23:24:02.980Z,3.10
2018-12-17T23:26:31.768Z,3.00
2018-12-17T23:29:00.506Z,3.00
2018-12-17T23:31:29.220Z,3.00
2018-12-17T23:33:57.926Z,3.00
2018-12-17T23:36:26.625Z,3.00
2018-12-17T23:38:55.344Z,3.00
2018-12-17T23:41:24.107Z,3.00
2018-12-17T23:43:53.140Z,2.90
2018-12-17T23:46:21.821Z,2.90
2018-12-17T23:48:50.608Z,2.90
2018-12-17T23:51:19.288Z,3.00
2018-12-17T23:53:47.966Z,3.00
2018-12-17T23:56:16.706Z,3.10
2018-12-17T23:58:45.492Z,3.10
